Recent forum postings ...
Today
Change wake turbulence after filing FP
Yesterday
KLM-VA site "not responding", is my flight toast?
3 days ago
Fly KLM Mon CTL
2021-04-09
SCHEDULE FLIGHT BOEING 737
2021-04-08
Law and rules in KLM VA
2021-04-04
Flying a Tour.


 
Aircraft IdentFlightrulesType of Flight
KLM153I
NumberType of AircraftWake turbulenceEquipmentTransponder Type
1A320LL
Departure AerodromeDeparture Time
LIMJ0300
Cruising speedFlight level
46333000
Route
GEN KALMO MIVKI BEROK OSMOX AMTEL SOVAN GIKIN TIBER PEMAR OKDEB INSOX ALAXI TEA



Destination AerodromeTotal EETAlternative Aerodrome
LIRN0100LIRF
Other information
PBN/A1B1C1D1O1S1 DOF/210408 REG/N320SB EET/LIRR0018 OPR/KLM PER/C RMK/KLM VA SIMBRIEF /V/

Explanation of the IVAO flightplan

Sestri (LIMJ), Italy

METAR
LIMJ 080220Z 05005KT CAVOK 06/M12 Q1023

WINDNE at 6 mph
VISIBILITYgreater than 7 miles
CONDITIONS
CLOUDSclear skies
TEMP43°F (6°C)
WIND CHILL39°F (4°C)
DEWPT10°F (-12°C)
HUMIDITY26%
BAROMETER1023 hPa (30.21 in Hg)

Capodichino (LIRN), Italy

METAR
LIRN 080350Z 02006KT CAVOK 04/M03 Q1023 NOSIG

WINDNNE at 7 mph
VISIBILITYgreater than 7 miles
CONDITIONS
CLOUDSclear skies
TEMP39°F (4°C)
WIND CHILL34°F (1°C)
DEWPT27°F (-3°C)
HUMIDITY61%
BAROMETER1023 hPa (30.21 in Hg)

Registration TimeGroundspeedAltitudeTransponderHeadingLongitudeLatitudeOn ground
02:58 08-04-20210 kts28 ft12001948.8508344.41277Yes
03:010 kts28 ft12001948.8508344.41277Yes
03:040 kts28 ft12001948.8508344.41277Yes
03:070 kts28 ft12001948.8508344.41277Yes
03:100 kts28 ft12001068.8506944.41333Yes
03:1362 kts28 ft12002888.8484444.4106Yes
03:16207 kts5902 ft12001678.7131344.36754No
03:19230 kts13086 ft12001678.783244.18712No
03:22373 kts18126 ft12003558.5768644.11114No
03:25475 kts23406 ft1200748.9436844.32925No
03:28507 kts27549 ft1200869.5239444.3235No
03:31518 kts31574 ft120010210.1045844.21728No
03:34528 kts33288 ft120012810.6267644.00493No
03:37528 kts33288 ft120014111.067843.70467No
03:40528 kts33288 ft120014211.4517943.36299No
03:43525 kts33288 ft120015511.7755842.99617No
03:46527 kts33286 ft120014812.0334842.64295No
03:49528 kts33288 ft120013212.4983442.31774No
03:52528 kts33288 ft120013212.9356742.01915No
03:55502 kts25026 ft120013213.3666541.72153No
03:58443 kts15870 ft120013213.7582941.4478No
04:01325 kts10928 ft120018713.9549141.18627No
04:04262 kts9116 ft120018713.9255140.95549No
04:07229 kts4001 ft120014113.9571840.74417No
04:10358 kts6406 ft12004914.2293140.84232No
04:13317 kts5754 ft120022014.4503140.75544No
04:16252 kts3000 ft120024314.1930840.65861No
04:19234 kts2999 ft120033613.9704540.64643No
04:22211 kts2995 ft12005414.1116240.7922No
04:25140 kts757 ft12005414.2615240.87186No
04:2829 kts309 ft120023314.2939240.88501Yes
04:310 kts309 ft120013714.279840.87748Yes
04:340 kts309 ft120013714.279840.87747Yes
04:370 kts309 ft120013714.2798140.87747Yes